createdAt,value
2023-02-28T00:02:04.272Z,3.10
2023-02-28T00:05:02.008Z,3.60
2023-02-28T00:07:52.575Z,2.83
2023-02-28T00:10:43.048Z,2.80
2023-02-28T00:13:35.207Z,3.20
2023-02-28T00:16:25.434Z,2.92
2023-02-28T00:19:15.920Z,3.42
2023-02-28T00:22:06.535Z,3.42
2023-02-28T00:24:57.096Z,3.22
2023-02-28T00:27:48.021Z,3.72
2023-02-28T00:30:38.346Z,3.55
2023-02-28T00:33:29.358Z,3.58
2023-02-28T00:36:19.553Z,3.00
2023-02-28T00:39:09.536Z,3.17
2023-02-28T00:42:00.012Z,4.07
2023-02-28T00:44:50.541Z,3.13
2023-02-28T00:47:40.821Z,3.58
2023-02-28T00:50:31.092Z,3.45
2023-02-28T00:53:23.021Z,3.85
2023-02-28T00:56:14.482Z,3.30
2023-02-28T00:59:04.539Z,3.53
2023-02-28T01:01:54.883Z,3.38
2023-02-28T01:04:45.830Z,3.85
2023-02-28T01:07:35.932Z,4.35
2023-02-28T01:10:26.776Z,3.85
2023-02-28T01:13:17.302Z,3.78
2023-02-28T01:16:07.932Z,3.65
2023-02-28T01:18:59.011Z,3.80
2023-02-28T01:21:49.242Z,3.90
2023-02-28T01:24:39.642Z,4.13
2023-02-28T01:27:29.967Z,3.17
2023-02-28T01:30:20.249Z,3.70
2023-02-28T01:33:10.838Z,3.65
2023-02-28T01:36:02.645Z,3.55
2023-02-28T01:38:53.437Z,4.50
2023-02-28T01:41:45.484Z,4.10
2023-02-28T01:45:03.299Z,4.05
2023-02-28T01:48:08.964Z,3.53
2023-02-28T01:51:06.149Z,3.92
2023-02-28T01:54:03.439Z,3.70
2023-02-28T01:57:06.974Z,3.85
2023-02-28T02:00:08.414Z,3.47
2023-02-28T02:03:10.552Z,3.65
2023-02-28T02:06:01.543Z,4.10
2023-02-28T02:08:51.870Z,3.88
2023-02-28T02:11:44.216Z,4.00
2023-02-28T02:14:50.424Z,3.90
2023-02-28T02:17:45.532Z,4.50
2023-02-28T02:21:12.971Z,4.00
2023-02-28T02:24:09.509Z,4.28
2023-02-28T02:27:11.544Z,4.45
2023-02-28T02:30:51.470Z,4.45
2023-02-28T02:34:11.801Z,4.07
2023-02-28T02:37:08.142Z,4.47
2023-02-28T02:40:18.902Z,3.90
2023-02-28T02:43:23.858Z,4.28
2023-02-28T02:46:30.808Z,4.78
2023-02-28T02:49:27.382Z,4.28
2023-02-28T02:52:23.305Z,4.90
2023-02-28T02:55:15.762Z,4.32
2023-02-28T02:58:11.377Z,4.95
2023-02-28T03:01:03.278Z,5.20
2023-02-28T03:04:02.693Z,4.32
2023-02-28T03:06:55.747Z,4.07
2023-02-28T03:09:54.155Z,4.40
2023-02-28T03:12:55.082Z,4.82
2023-02-28T03:16:10.246Z,4.85
2023-02-28T03:19:07.891Z,4.93
2023-02-28T03:22:15.756Z,5.10
2023-02-28T03:25:36.788Z,5.10
2023-02-28T03:28:33.895Z,5.13
2023-02-28T03:31:31.469Z,5.07
2023-02-28T03:34:27.569Z,4.38
2023-02-28T03:37:23.154Z,5.53
2023-02-28T03:40:18.376Z,5.30
2023-02-28T03:43:18.802Z,5.35
2023-02-28T03:46:13.814Z,4.70
2023-02-28T03:49:25.332Z,5.18
2023-02-28T03:52:16.114Z,5.85
2023-02-28T03:55:11.791Z,5.43
2023-02-28T03:58:10.302Z,4.72
2023-02-28T04:01:09.214Z,5.10
2023-02-28T04:03:59.742Z,5.90
2023-02-28T04:06:52.131Z,4.50
2023-02-28T04:09:42.369Z,5.18
2023-02-28T04:12:32.557Z,4.68
2023-02-28T04:15:24.237Z,4.97
2023-02-28T04:18:14.227Z,5.25
2023-02-28T04:21:04.882Z,8.40
2023-02-28T04:23:54.944Z,5.57
2023-02-28T04:26:47.803Z,5.13
2023-02-28T04:29:37.826Z,5.40
2023-02-28T04:32:27.911Z,4.78
2023-02-28T04:35:18.217Z,4.95
2023-02-28T04:38:08.195Z,5.18
2023-02-28T04:40:59.656Z,5.75
2023-02-28T04:43:50.001Z,5.45
2023-02-28T04:46:40.095Z,5.72
2023-02-28T04:49:30.310Z,5.20
2023-02-28T04:52:20.746Z,4.68
2023-02-28T04:55:11.290Z,5.78
2023-02-28T04:58:01.276Z,5.85
2023-02-28T05:00:52.454Z,5.70
2023-02-28T05:03:43.561Z,5.60
2023-02-28T05:06:34.388Z,5.63
2023-02-28T05:09:24.264Z,5.18
2023-02-28T05:12:14.755Z,6.13
2023-02-28T05:15:05.911Z,5.68
2023-02-28T05:17:56.208Z,6.00
2023-02-28T05:20:46.755Z,6.10
2023-02-28T05:23:36.574Z,5.60
2023-02-28T05:26:27.540Z,5.32
2023-02-28T05:29:17.733Z,6.28
2023-02-28T05:32:12.822Z,5.47
2023-02-28T05:35:03.395Z,5.72
2023-02-28T05:37:53.746Z,5.35
2023-02-28T05:40:43.779Z,5.95
2023-02-28T05:43:33.622Z,6.35
2023-02-28T05:46:23.871Z,6.20
2023-02-28T05:49:13.774Z,6.13
2023-02-28T05:52:04.447Z,6.32
2023-02-28T05:54:54.545Z,6.15
2023-02-28T05:57:45.064Z,6.22
2023-02-28T06:00:35.972Z,6.82
2023-02-28T06:03:26.943Z,6.55
2023-02-28T06:06:17.554Z,6.30
2023-02-28T06:09:07.827Z,5.93
2023-02-28T06:12:04.752Z,5.80
2023-02-28T06:14:55.153Z,6.80
2023-02-28T06:17:45.416Z,5.80
2023-02-28T06:20:37.157Z,6.55
2023-02-28T06:23:28.015Z,5.90
2023-02-28T06:26:18.070Z,5.85
2023-02-28T06:29:08.507Z,6.45
2023-02-28T06:31:58.367Z,6.90
2023-02-28T06:34:48.955Z,6.85
2023-02-28T06:37:41.654Z,6.88
2023-02-28T06:40:35.078Z,6.00
2023-02-28T06:43:26.251Z,6.65
2023-02-28T06:46:16.401Z,6.53
2023-02-28T06:49:09.743Z,6.20
2023-02-28T06:51:59.992Z,6.70
2023-02-28T06:55:00.638Z,7.00
2023-02-28T06:57:51.725Z,6.53
2023-02-28T07:00:45.677Z,6.40
2023-02-28T07:03:36.805Z,7.15
2023-02-28T07:06:27.527Z,6.47
2023-02-28T07:09:17.883Z,6.95
2023-02-28T07:12:08.282Z,7.63
2023-02-28T07:14:58.668Z,7.18
2023-02-28T07:17:48.701Z,6.43
2023-02-28T07:20:39.237Z,6.43
2023-02-28T07:23:29.241Z,7.25
2023-02-28T07:26:21.107Z,7.50
2023-02-28T07:29:11.108Z,7.32
2023-02-28T07:32:01.387Z,6.68
2023-02-28T07:34:51.786Z,7.25
2023-02-28T07:37:43.340Z,6.90
2023-02-28T07:40:33.216Z,7.65
2023-02-28T07:43:23.519Z,7.68
2023-02-28T07:46:16.862Z,7.25
2023-02-28T07:49:08.051Z,7.85
2023-02-28T07:51:57.779Z,7.75
2023-02-28T07:54:48.148Z,7.43
2023-02-28T07:57:38.769Z,7.53
2023-02-28T08:00:30.191Z,7.70
2023-02-28T08:03:21.988Z,8.38
2023-02-28T08:06:18.648Z,8.02
2023-02-28T08:09:09.072Z,7.93
2023-02-28T08:11:58.922Z,8.07
2023-02-28T08:14:49.182Z,8.00
2023-02-28T08:17:39.995Z,8.07
2023-02-28T08:20:30.378Z,7.75
2023-02-28T08:23:20.875Z,8.50
2023-02-28T08:26:11.010Z,9.00
2023-02-28T08:29:01.821Z,8.38
2023-02-28T08:31:51.872Z,8.57
2023-02-28T08:34:42.283Z,8.32
2023-02-28T08:37:32.543Z,7.88
2023-02-28T08:40:22.488Z,8.85
2023-02-28T08:43:12.733Z,8.30
2023-02-28T08:46:04.616Z,9.38
2023-02-28T08:48:57.078Z,8.80
2023-02-28T08:51:47.718Z,9.93
2023-02-28T08:54:38.343Z,8.82
2023-02-28T08:57:28.811Z,9.23
2023-02-28T09:00:19.299Z,8.13
2023-02-28T09:03:09.496Z,8.43
2023-02-28T09:06:02.435Z,9.13
2023-02-28T09:08:53.027Z,8.55
2023-02-28T09:11:43.538Z,8.88
2023-02-28T09:14:33.736Z,8.57
2023-02-28T09:17:23.899Z,8.80
2023-02-28T09:20:13.873Z,8.63
2023-02-28T09:23:04.677Z,9.55
2023-02-28T09:25:55.912Z,8.77
2023-02-28T09:28:46.359Z,8.50
2023-02-28T09:31:36.885Z,9.18
2023-02-28T09:34:28.369Z,8.68
2023-02-28T09:37:18.514Z,9.23
2023-02-28T09:40:10.881Z,9.05
2023-02-28T09:43:01.284Z,9.15
2023-02-28T09:46:06.824Z,8.98
2023-02-28T09:48:58.130Z,9.50
2023-02-28T09:52:00.504Z,9.38
2023-02-28T09:54:50.799Z,8.65
2023-02-28T09:57:43.283Z,9.15
2023-02-28T10:00:37.339Z,8.57
2023-02-28T10:03:50.726Z,9.48
2023-02-28T10:06:47.650Z,9.13
2023-02-28T10:09:38.560Z,8.85
2023-02-28T10:12:31.912Z,9.23
2023-02-28T10:15:27.229Z,8.97
2023-02-28T10:18:22.301Z,8.48
2023-02-28T10:21:32.583Z,8.40
2023-02-28T10:24:22.396Z,9.05
2023-02-28T10:27:17.006Z,8.77
2023-02-28T10:30:10.461Z,8.65
2023-02-28T10:33:00.764Z,8.70
2023-02-28T10:35:52.504Z,9.23
2023-02-28T10:38:44.111Z,9.50
2023-02-28T10:41:37.419Z,8.38
2023-02-28T10:44:27.912Z,8.93
2023-02-28T10:47:20.438Z,9.30
2023-02-28T10:50:29.274Z,9.13
2023-02-28T10:53:25.776Z,9.10
2023-02-28T10:56:27.021Z,8.50
2023-02-28T10:59:29.344Z,8.88
2023-02-28T11:02:39.218Z,8.98
2023-02-28T11:05:36.282Z,9.05
2023-02-28T11:08:26.496Z,9.38
2023-02-28T11:11:17.906Z,9.63
2023-02-28T11:14:21.790Z,9.05
2023-02-28T11:17:21.580Z,8.65
2023-02-28T11:20:24.362Z,9.00
2023-02-28T11:23:15.398Z,8.88
2023-02-28T11:26:05.896Z,8.70
2023-02-28T11:29:18.221Z,8.52
2023-02-28T11:32:19.986Z,8.88
2023-02-28T11:35:09.934Z,9.23
2023-02-28T11:38:00.283Z,8.23
2023-02-28T11:40:56.627Z,9.75
2023-02-28T11:44:00.578Z,8.95
2023-02-28T11:46:55.546Z,9.40
2023-02-28T11:49:54.786Z,8.57
2023-02-28T11:52:55.417Z,9.02
2023-02-28T11:56:00.545Z,9.05
2023-02-28T11:59:13.245Z,9.27
2023-02-28T12:02:07.520Z,9.10
2023-02-28T12:05:32.171Z,8.82
2023-02-28T12:08:35.480Z,9.30
2023-02-28T12:11:44.296Z,9.85
2023-02-28T12:14:55.932Z,8.52
2023-02-28T12:17:59.522Z,9.10
2023-02-28T12:21:23.844Z,9.02
2023-02-28T12:24:24.629Z,9.97
2023-02-28T12:27:20.053Z,8.50
2023-02-28T12:30:22.779Z,9.75
2023-02-28T12:33:20.987Z,8.93
2023-02-28T12:36:18.393Z,9.48
2023-02-28T12:39:19.615Z,8.98
2023-02-28T12:42:21.074Z,8.95
2023-02-28T12:45:21.123Z,9.15
2023-02-28T12:48:20.704Z,8.50
2023-02-28T12:51:14.782Z,8.82
2023-02-28T12:54:30.808Z,8.52
2023-02-28T12:57:37.603Z,8.60
2023-02-28T13:00:37.108Z,8.80
2023-02-28T13:03:49.657Z,9.10
2023-02-28T13:06:55.071Z,8.52
2023-02-28T13:09:56.309Z,9.45
2023-02-28T13:12:52.017Z,8.52
2023-02-28T13:15:57.455Z,8.75
2023-02-28T13:18:48.041Z,8.80
2023-02-28T13:21:45.639Z,8.10
2023-02-28T13:24:41.020Z,8.95
2023-02-28T13:27:40.914Z,9.23
2023-02-28T13:30:53.857Z,8.77
2023-02-28T13:34:00.006Z,9.07
2023-02-28T13:36:50.168Z,8.98
2023-02-28T13:39:40.235Z,8.45
2023-02-28T13:42:39.501Z,9.50
2023-02-28T13:45:39.347Z,9.40
2023-02-28T13:48:30.570Z,9.32
2023-02-28T13:51:45.440Z,8.82
2023-02-28T13:55:00.656Z,8.73
2023-02-28T13:58:12.757Z,9.45
2023-02-28T14:01:31.315Z,8.75
2023-02-28T14:04:47.025Z,9.20
2023-02-28T14:07:48.085Z,8.85
2023-02-28T14:10:46.169Z,9.55
2023-02-28T14:13:48.009Z,9.40
2023-02-28T14:16:51.007Z,9.68
2023-02-28T14:19:44.558Z,9.77
2023-02-28T14:22:49.717Z,10.02
2023-02-28T14:26:07.736Z,10.10
2023-02-28T14:29:28.680Z,9.57
2023-02-28T14:32:55.400Z,10.50
2023-02-28T14:36:08.367Z,9.35
2023-02-28T14:39:02.132Z,9.20
2023-02-28T14:41:53.088Z,9.55
2023-02-28T14:44:42.949Z,10.93
2023-02-28T14:47:34.796Z,10.05
2023-02-28T14:50:30.586Z,10.00
2023-02-28T14:53:24.084Z,9.68
2023-02-28T14:56:26.019Z,9.55
2023-02-28T14:59:36.867Z,9.80
2023-02-28T15:02:30.832Z,10.35
2023-02-28T15:05:29.838Z,9.65
2023-02-28T15:08:21.067Z,9.40
2023-02-28T15:11:20.276Z,9.68
2023-02-28T15:14:17.979Z,10.98
2023-02-28T15:17:18.512Z,9.98
2023-02-28T15:20:17.032Z,9.80
2023-02-28T15:23:07.552Z,9.80
2023-02-28T15:25:59.757Z,9.35
2023-02-28T15:28:56.072Z,10.40
2023-02-28T15:31:58.319Z,10.25
2023-02-28T15:34:49.044Z,9.90
2023-02-28T15:37:46.248Z,9.55
2023-02-28T15:40:43.505Z,9.80
2023-02-28T15:43:35.785Z,9.80
2023-02-28T15:46:26.221Z,9.95
2023-02-28T15:49:21.693Z,9.73
2023-02-28T15:52:16.679Z,10.82
2023-02-28T15:55:23.329Z,9.43
2023-02-28T15:58:14.643Z,10.27
2023-02-28T16:01:19.636Z,10.05
2023-02-28T16:04:19.068Z,10.70
2023-02-28T16:07:19.037Z,10.77
2023-02-28T16:10:12.012Z,9.57
2023-02-28T16:13:03.767Z,10.48
2023-02-28T16:15:55.224Z,10.00
2023-02-28T16:18:45.802Z,10.20
2023-02-28T16:21:35.654Z,10.23
2023-02-28T16:24:26.151Z,10.40
2023-02-28T16:27:31.499Z,10.52
2023-02-28T16:30:25.198Z,10.02
2023-02-28T16:33:15.658Z,10.77
2023-02-28T16:36:07.253Z,10.60
2023-02-28T16:38:58.088Z,10.55
2023-02-28T16:41:50.774Z,11.02
2023-02-28T16:44:41.284Z,10.63
2023-02-28T16:47:32.879Z,11.02
2023-02-28T16:50:26.394Z,10.50
2023-02-28T16:53:18.998Z,12.02
2023-02-28T16:56:19.151Z,7.65
2023-02-28T16:59:11.035Z,11.60
2023-02-28T17:02:01.462Z,11.38
2023-02-28T17:04:51.457Z,10.85
2023-02-28T17:07:42.509Z,10.93
2023-02-28T17:10:32.675Z,11.02
2023-02-28T17:13:22.980Z,11.30
2023-02-28T17:16:41.078Z,13.63
2023-02-28T17:19:31.489Z,10.68
2023-02-28T17:22:21.810Z,12.02
2023-02-28T17:25:18.151Z,10.85
2023-02-28T17:28:10.137Z,10.90
2023-02-28T17:31:00.373Z,11.02
2023-02-28T17:33:51.144Z,10.82
2023-02-28T17:36:41.661Z,10.90
2023-02-28T17:39:31.911Z,11.45
2023-02-28T17:42:22.150Z,10.88
2023-02-28T17:45:13.084Z,10.50
2023-02-28T17:48:03.716Z,11.18
2023-02-28T17:50:55.064Z,11.45
2023-02-28T17:53:45.877Z,11.98
2023-02-28T17:56:36.454Z,10.93
2023-02-28T17:59:26.754Z,11.88
2023-02-28T18:02:17.900Z,11.30
2023-02-28T18:05:09.452Z,11.52
2023-02-28T18:07:59.896Z,11.48
2023-02-28T18:10:49.748Z,11.32
2023-02-28T18:13:39.762Z,10.55
2023-02-28T18:16:30.422Z,12.13
2023-02-28T18:19:21.265Z,11.60
2023-02-28T18:22:11.526Z,11.93
2023-02-28T18:25:02.589Z,11.43
2023-02-28T18:27:59.009Z,13.27
2023-02-28T18:30:49.063Z,12.27
2023-02-28T18:33:39.455Z,14.00
2023-02-28T18:36:30.175Z,14.15
2023-02-28T18:39:20.808Z,13.55
2023-02-28T18:42:10.784Z,13.02
2023-02-28T18:45:01.157Z,13.68
2023-02-28T18:47:51.028Z,13.95
2023-02-28T18:50:42.094Z,14.05
2023-02-28T18:53:40.097Z,14.07
2023-02-28T18:56:30.679Z,14.10
2023-02-28T18:59:20.911Z,13.52
2023-02-28T19:02:11.208Z,13.13
2023-02-28T19:05:01.682Z,12.77
2023-02-28T19:07:52.256Z,13.90
2023-02-28T19:10:42.308Z,16.08
2023-02-28T19:13:32.820Z,13.43
2023-02-28T19:16:24.147Z,25.05
2023-02-28T19:19:14.160Z,18.15
2023-02-28T19:22:04.565Z,14.73
2023-02-28T19:24:54.773Z,13.80
2023-02-28T19:27:44.753Z,14.55
2023-02-28T19:30:34.867Z,13.60
2023-02-28T19:33:25.282Z,13.45
2023-02-28T19:36:16.503Z,12.75
2023-02-28T19:39:07.060Z,12.40
2023-02-28T19:41:57.265Z,13.23
2023-02-28T19:44:47.784Z,12.85
2023-02-28T19:47:38.372Z,12.90
2023-02-28T19:50:28.916Z,13.50
2023-02-28T19:53:19.091Z,13.75
2023-02-28T19:56:10.081Z,14.02
2023-02-28T19:59:00.194Z,14.07
2023-02-28T20:01:54.553Z,13.07
2023-02-28T20:04:49.283Z,14.52
2023-02-28T20:07:39.494Z,14.32
2023-02-28T20:10:30.732Z,13.57
2023-02-28T20:13:20.666Z,14.55
2023-02-28T20:16:14.725Z,10.75
2023-02-28T20:19:05.043Z,14.75
2023-02-28T20:21:55.515Z,14.65
2023-02-28T20:24:47.688Z,14.65
2023-02-28T20:27:38.244Z,14.27
2023-02-28T20:30:28.136Z,13.57
2023-02-28T20:33:19.435Z,14.20
2023-02-28T20:36:11.910Z,13.80
2023-02-28T20:39:02.106Z,16.90
2023-02-28T20:41:52.383Z,16.85
2023-02-28T20:44:42.618Z,15.63
2023-02-28T20:47:33.190Z,14.18
2023-02-28T20:50:23.152Z,13.68
2023-02-28T20:53:13.304Z,14.43
2023-02-28T20:56:05.046Z,13.68
2023-02-28T20:58:58.094Z,14.82
2023-02-28T21:01:48.703Z,13.00
2023-02-28T21:04:38.959Z,13.10
2023-02-28T21:07:29.528Z,14.18
2023-02-28T21:10:19.886Z,15.23
2023-02-28T21:13:09.758Z,14.15
2023-02-28T21:16:05.707Z,15.40
2023-02-28T21:18:56.562Z,14.90
2023-02-28T21:21:48.149Z,14.82
2023-02-28T21:24:55.081Z,14.50
2023-02-28T21:27:45.557Z,14.15
2023-02-28T21:30:37.911Z,14.73
2023-02-28T21:33:28.120Z,15.07
2023-02-28T21:36:21.052Z,15.45
2023-02-28T21:39:18.344Z,14.48
2023-02-28T21:42:08.490Z,14.30
2023-02-28T21:44:58.910Z,14.93
2023-02-28T21:47:49.034Z,14.90
2023-02-28T21:50:39.890Z,15.55
2023-02-28T21:53:36.300Z,15.60
2023-02-28T21:56:35.377Z,15.82
2023-02-28T21:59:25.559Z,15.73
2023-02-28T22:02:16.178Z,15.77
2023-02-28T22:05:06.580Z,16.08
2023-02-28T22:07:56.692Z,15.55
2023-02-28T22:10:46.560Z,15.25
2023-02-28T22:13:37.379Z,15.40
2023-02-28T22:16:33.094Z,15.57
2023-02-28T22:19:29.365Z,15.65
2023-02-28T22:22:19.661Z,16.02
2023-02-28T22:25:10.272Z,15.35
2023-02-28T22:28:00.613Z,16.13
2023-02-28T22:30:51.110Z,15.18
2023-02-28T22:33:41.448Z,15.57
2023-02-28T22:36:32.560Z,15.30
2023-02-28T22:39:22.578Z,15.50
2023-02-28T22:42:13.039Z,15.18
2023-02-28T22:45:03.099Z,14.63
2023-02-28T22:47:53.313Z,15.00
2023-02-28T22:50:43.736Z,15.35
2023-02-28T22:53:35.418Z,15.10
2023-02-28T22:56:28.269Z,13.40
2023-02-28T22:59:18.937Z,15.15
2023-02-28T23:02:09.313Z,14.15
2023-02-28T23:04:59.682Z,14.20
2023-02-28T23:07:50.043Z,15.20
2023-02-28T23:10:43.634Z,14.10
2023-02-28T23:16:31.229Z,14.65
2023-02-28T23:19:27.732Z,14.43
2023-02-28T23:22:17.805Z,14.80
2023-02-28T23:25:08.129Z,14.13
2023-02-28T23:27:57.996Z,13.05
2023-02-28T23:30:48.378Z,14.65
2023-02-28T23:33:38.136Z,14.73
2023-02-28T23:36:29.406Z,15.63
2023-02-28T23:39:20.918Z,13.90
2023-02-28T23:42:11.091Z,14.43
2023-02-28T23:45:01.444Z,15.70
2023-02-28T23:50:45.136Z,15.43
2023-02-28T23:53:37.201Z,16.70
2023-02-28T23:56:27.363Z,14.20
2023-02-28T23:59:17.879Z,15.35
